»·PEaware :: GSA4069 KAMA-KDEN

GSA4069 :: KAMA-KDEN

FLIGHT INFORMATION

Flight Status: Arrived
Operator:
Global Sim Alliance
More flights by this operator :: More flights under this callsign
Pilot: Anonymous 14019 (14019)
Aircraft: BOEING 737-300
(B733)
More flights by this aircraft type
Origin: KAMA Amarillo Intl
United States
Destination: KDEN Denver Intl
United States
More flights between these airports :: More routes between these airports
Route: + ZIGEE BOSS2
File this flight plan on PilotEdge
Remarks: twitch.tv / threegreengaming
Altitude:
(Current/Filed)
32,000ft
Speed:
(Current/Filed)
420kts
Departed: 12-Jul-17 04:01 PM
Arrived: 12-Jul-17 04:59 PM
Distance/Time
Traveled:
312nm/0:58
Distance/Time
To Go:
Arrived

Flight Plot

Page will automatically refresh every two minutes.

Flight plan parsing failed; only flown route is shown


Map Options




Map Legend


Flown Route
Filed Route
Departure Airport
Arrival Airport
Navaid (VOR, NDB)
Fix

Horizontal Profiles

Position Reports

Time Latitude Longitude Heading Altitude Ground
Speed
12-Jul-17 15:33 35.218062 -101.706860 93 3613ft 0kts
12-Jul-17 15:34 35.218025 -101.706897 93 3613ft 0kts
12-Jul-17 15:35 35.218404 -101.706679 92 3613ft 0kts
12-Jul-17 15:36 35.218363 -101.706674 92 3613ft 0kts
12-Jul-17 15:37 35.218152 -101.706596 35 3613ft 1kts
12-Jul-17 15:43 35.219333 -101.706124 155 3613ft 0kts
12-Jul-17 15:44 35.219333 -101.706124 155 3613ft 0kts
12-Jul-17 15:45 35.219333 -101.706124 155 3613ft 0kts
12-Jul-17 15:46 35.219333 -101.706124 155 3613ft 0kts
12-Jul-17 15:47 35.219333 -101.706124 155 3613ft 0kts
12-Jul-17 15:48 35.219333 -101.706124 155 3613ft 0kts
12-Jul-17 15:49 35.219333 -101.706124 155 3613ft 0kts
12-Jul-17 15:50 35.219333 -101.706124 155 3613ft 0kts
12-Jul-17 15:51 35.219333 -101.706124 155 3613ft 0kts
12-Jul-17 15:52 35.219333 -101.706124 155 3613ft 0kts
12-Jul-17 15:53 35.219393 -101.706156 155 3613ft 0kts
12-Jul-17 15:54 35.219833 -101.706397 155 3613ft 0kts
12-Jul-17 15:55 35.219833 -101.706397 155 3613ft 0kts
12-Jul-17 15:56 35.219833 -101.706397 155 3613ft 0kts
12-Jul-17 15:57 35.219833 -101.706397 155 3613ft 0kts
12-Jul-17 15:58 35.221600 -101.706675 43 3613ft 12kts
12-Jul-17 15:59 35.224308 -101.703261 46 3613ft 16kts
12-Jul-17 16:00 35.227595 -101.699140 45 3613ft 17kts
12-Jul-17 16:01 35.229896 -101.699289 315 3613ft 2kts
12-Jul-17 16:02 35.229924 -101.699322 315 3613ft 0kts
12-Jul-17 16:03 35.229933 -101.699333 315 3613ft 0kts
12-Jul-17 16:04 35.227744 -101.704141 225 3613ft 90kts
12-Jul-17 16:05 35.192230 -101.751140 228 5437ft 238kts
12-Jul-17 16:06 35.152224 -101.809416 230 8691ft 248kts
12-Jul-17 16:07 35.106474 -101.881693 256 8940ft 274kts
12-Jul-17 16:08 35.157425 -101.932878 16 10839ft 313kts
12-Jul-17 16:09 35.245634 -101.913348 347 14071ft 341kts
12-Jul-17 16:10 35.337705 -101.951286 345 17128ft 358kts
12-Jul-17 16:11 35.434590 -101.987396 345 19865ft 373kts
12-Jul-17 16:12 35.535372 -102.024736 345 22333ft 388kts
12-Jul-17 16:13 35.639842 -102.063479 345 23092ft 395kts
12-Jul-17 16:14 35.745885 -102.102881 345 25178ft 405kts
12-Jul-17 16:15 35.855070 -102.143563 345 27187ft 418kts
12-Jul-17 16:16 35.967244 -102.185492 345 29027ft 429kts
12-Jul-17 16:17 36.079616 -102.227677 345 31349ft 421kts
12-Jul-17 16:18 36.190611 -102.269350 345 32104ft 419kts
12-Jul-17 16:19 36.301308 -102.311097 345 32072ft 416kts
12-Jul-17 16:20 36.412005 -102.352998 345 32076ft 417kts
12-Jul-17 16:21 36.522211 -102.394817 345 32068ft 418kts
12-Jul-17 16:22 36.638091 -102.438883 345 32062ft 449kts
12-Jul-17 16:23 36.757310 -102.484436 345 32127ft 449kts
12-Jul-17 16:24 36.876729 -102.530253 345 32074ft 449kts
12-Jul-17 16:25 36.995535 -102.575977 345 32075ft 449kts
12-Jul-17 16:26 37.114160 -102.621785 345 32039ft 450kts
12-Jul-17 16:27 37.233007 -102.667918 344 32074ft 450kts
12-Jul-17 16:28 37.352223 -102.714347 344 32075ft 450kts
12-Jul-17 16:29 37.471087 -102.760712 344 32075ft 450kts
12-Jul-17 16:30 37.588693 -102.812692 341 32076ft 451kts
12-Jul-17 16:31 37.705899 -102.868435 341 32075ft 450kts
12-Jul-17 16:32 37.822494 -102.923871 341 32075ft 451kts
12-Jul-17 16:33 37.939565 -102.979732 341 32075ft 451kts
12-Jul-17 16:34 38.056305 -103.035588 341 32075ft 451kts
12-Jul-17 16:35 38.172768 -103.091403 341 32077ft 451kts
12-Jul-17 16:36 38.289761 -103.147807 341 32075ft 451kts
12-Jul-17 16:37 38.406401 -103.204267 341 32075ft 451kts
12-Jul-17 16:38 38.523101 -103.261119 341 31448ft 446kts
12-Jul-17 16:39 38.637889 -103.317251 341 27908ft 445kts
12-Jul-17 16:40 38.746580 -103.387799 312 24710ft 445kts
12-Jul-17 16:41 38.826939 -103.506151 314 24063ft 444kts
12-Jul-17 16:42 38.909352 -103.622609 314 23944ft 424kts
12-Jul-17 16:43 38.979295 -103.721884 314 22029ft 389kts
12-Jul-17 16:44 39.050099 -103.822491 314 19392ft 373kts
12-Jul-17 16:45 39.118678 -103.920065 314 19046ft 371kts
12-Jul-17 16:46 39.183239 -104.012179 314 17978ft 328kts
12-Jul-17 16:47 39.243206 -104.098071 314 16927ft 324kts
12-Jul-17 16:48 39.278175 -104.199529 288 16370ft 290kts
12-Jul-17 16:49 39.296508 -104.295514 293 14964ft 271kts
12-Jul-17 16:50 39.319689 -104.386567 290 13760ft 266kts
12-Jul-17 16:51 39.340712 -104.478636 289 13784ft 269kts
12-Jul-17 16:52 39.362157 -104.574783 289 12014ft 279kts
12-Jul-17 16:53 39.402237 -104.648797 336 11823ft 248kts
12-Jul-17 16:54 39.466531 -104.664971 3 11808ft 240kts
12-Jul-17 16:55 39.534118 -104.664122 3 10967ft 247kts
12-Jul-17 16:56 39.600555 -104.664301 1 10281ft 239kts
12-Jul-17 16:57 39.666607 -104.664749 3 8703ft 220kts
12-Jul-17 16:58 39.712175 -104.661531 4 7718ft 182kts
12-Jul-17 16:59 39.762379 -104.661617 6 6717ft 129kts
12-Jul-17 17:00 39.799669 -104.660844 6 6042ft 133kts
12-Jul-17 17:01 39.835483 -104.660277 2 5438ft 110kts
12-Jul-17 17:02 39.847343 -104.660363 337 5438ft 25kts
12-Jul-17 17:03 39.848945 -104.661322 331 5438ft 0kts
12-Jul-17 17:04 39.851400 -104.662265 360 5438ft 16kts
12-Jul-17 17:05 39.852307 -104.666816 269 5438ft 17kts
12-Jul-17 17:06 39.853281 -104.670791 13 5438ft 3kts
12-Jul-17 17:07 39.853325 -104.670774 16 5438ft 0kts
12-Jul-17 17:08 39.853325 -104.670774 16 5438ft 0kts

Navigation Log

Ident Type
Flight plan parsing failed, navigation log unavailable